Minneapolis, Minnesota
Traffic Map
Current Weather Conditions
Minneapolis, Minnesota
Clear
Clear
46°
Feels Like: 40°
Wind Chill: 40° Ceiling: Unl
Heat Index: 46° Visibility: 10mi
Dew Point: 38° Wind: 14mph
Humidity: 73% Direction: 110° (ESE)
Pressure: 30.21in Gusts: 0mph
Raw Report DataKMSP 211453Z 11012KT 10SM CLR 08/03 A3021 RMK AO2 SLP234 T00780033 51013
Traffic Incident Summary
Active as of:
Severity:
Category:
InformationThere was an issue retrieving the traffic information for this location. Please try a different location or try again shortly.
Advertisements
Track Severe Weather on mobile